Weather reports worldwide

Advertisment
Naimakka, Sweden (2055): temperature & dewpoint: 06.12.2019 12:00:00 - 12.12.2019 12:00:00 (CET)Naimakka, Sweden (2055): wind speed & gusts: 06.12.2019 12:00:00 - 12.12.2019 12:00:00 (CET)Naimakka, Sweden (2055): wind direction: 06.12.2019 12:00:00 - 12.12.2019 12:00:00 (CET)Naimakka, Sweden (2055): visibility: 06.12.2019 12:00:00 - 12.12.2019 12:00:00 (CET)Naimakka, Sweden (2055): precipitation: 06.12.2019 12:00:00 - 12.12.2019 12:00:00 (CET)
Date & Time tt [°C] td [°C] ff [km/h] ff [kn] fx [km/h] fx [kn] dd vv [km] rr [mm]
12.12.2019 12:00:00 -2,5 -5,1 16 8 35 19 S 28 0,0
12.12.2019 11:00:00 -2,8 -4,5 12 7 28 15 E 39 -
12.12.2019 10:00:00 -3,4 -4,4 5 3 22 12 E 13 0,0
12.12.2019 09:00:00 -4,4 -5,1 13 7 35 19 ENE 7 0,0
12.12.2019 08:00:00 -4,9 -5,7 23 13 39 21 E 1,6 0,0
12.12.2019 07:00:00 -7,6 -8,5 8 4 19 10 E 12 0,0
12.12.2019 06:00:00 -8,3 -9,4 14 8 22 12 E 50 0,1
12.12.2019 05:00:00 -8,6 -9,7 11 6 17 9 E 50 0,0
12.12.2019 04:00:00 -7,2 -8,3 9 5 18 10 ENE 50 0,0
12.12.2019 03:00:00 -4,0 -6,6 9 5 22 12 SW 50 0,0
12.12.2019 02:00:00 -2,9 -7,1 9 5 23 12 SW 50 0,0
12.12.2019 01:00:00 -1,8 -6,5 13 7 27 15 SSW 50 0,0
12.12.2019 00:00:00 -4,6 -7,4 7 4 21 11 ESE 50 0,0
11.12.2019 23:00:00 -4,1 -7,0 5 3 22 12 SE 50 0,0
11.12.2019 22:00:00 -3,6 -5,9 7 4 13 7 E 50 0,0
11.12.2019 21:00:00 -3,3 -5,9 9 5 23 13 W 50 0,0
11.12.2019 20:00:00 -2,8 -5,3 6 3 14 8 W 50 0,0
11.12.2019 19:00:00 -2,2 -3,2 6 3 21 11 NE 50 0,0
11.12.2019 18:00:00 -3,5 -4,0 6 3 16 9 ESE 15 0,2
11.12.2019 17:00:00 -3,9 -4,6 11 6 28 15 E 1,3 0,4
11.12.2019 16:00:00 -4,6 -5,3 14 8 22 12 ENE 0,6 0,6
11.12.2019 15:00:00 -5,0 -5,7 10 5 21 11 E 1,0 0,5
11.12.2019 14:00:00 -5,4 -6,2 15 8 21 11 E 1,6 0,2
11.12.2019 13:00:00 -5,7 -6,6 13 7 24 13 SE 2,8 0,3
11.12.2019 12:00:00 -6,0 -6,9 13 7 21 12 ESE 2,0 0,3
11.12.2019 11:00:00 -6,6 -7,4 11 6 22 12 ESE 1,2 0,9
11.12.2019 10:00:00 -10,5 -11,8 8 4 18 10 ESE 0,8 0,9
11.12.2019 09:00:00 -14,3 -16,0 10 5 14 7 E 0,8 0,7
11.12.2019 08:00:00 -15,5 -17,4 9 5 15 8 ESE 0,8 0,3
11.12.2019 07:00:00 -17,1 -19,2 9 5 16 8 SE 1,6 0,0
11.12.2019 06:00:00 -18,1 -20,3 10 5 17 9 SE 7 0,0
11.12.2019 05:00:00 -18,1 -20,3 11 6 18 10 SE 2,2 0,0
11.12.2019 04:00:00 -17,7 -19,7 9 5 14 8 SE 9 0,0
11.12.2019 03:00:00 -21,1 -23,2 8 4 11 6 E 50 0,0
11.12.2019 02:00:00 -24,4 -26,9 9 5 12 6 E 50 0,0
11.12.2019 01:00:00 -30,2 -33,5 4 2 6 3 E 50 0,0
11.12.2019 00:00:00 -30,4 -33,7 0 0 5 3 N 50 0,0
10.12.2019 23:00:00 -30,0 -33,3 0 0 4 2 N 50 0,0
10.12.2019 22:00:00 -28,6 -31,6 2 1 6 3 NW 50 0,0
10.12.2019 21:00:00 -28,7 -31,9 3 2 9 5 WSW 50 0,0
10.12.2019 20:00:00 -27,6 -30,7 3 2 6 4 WSW 50 0,0
10.12.2019 19:00:00 -27,1 -30,2 3 2 7 4 W 40 -
10.12.2019 18:00:00 -24,4 -27,0 3 1 10 5 WSW 50 -
10.12.2019 17:00:00 -27,5 -30,6 3 2 7 4 W 21 0,0
10.12.2019 16:00:00 -28,0 -31,1 3 2 5 3 W 50 0,0
10.12.2019 15:00:00 -27,9 -31,1 0 0 4 2 N 50 0,0
10.12.2019 14:00:00 -26,6 -29,6 0 0 6 3 N 50 0,0
10.12.2019 13:00:00 -26,2 -29,2 0 0 6 3 N 50 0,0
10.12.2019 12:00:00 -25,5 -28,3 3 1 4 2 SE 50 0,0
10.12.2019 11:00:00 -26,1 -29,2 2 1 6 3 SSW 50 0,0
10.12.2019 10:00:00 -23,3 -26,1 0 0 9 5 N 50 -
10.12.2019 09:00:00 -20,7 -23,2 0 0 7 4 N 50 0,0
10.12.2019 08:00:00 -11,7 -14,0 8 4 14 8 NNE 50 0,0
10.12.2019 07:00:00 -11,9 -14,5 7 4 14 8 W 50 0,0
10.12.2019 06:00:00 -11,3 -13,8 7 4 15 8 WNW 50 0,0
10.12.2019 05:00:00 -12,2 -13,8 9 5 12 7 WNW 50 0,0
10.12.2019 04:00:00 -20,9 -23,3 4 2 8 5 W 50 0,0
10.12.2019 03:00:00 -13,7 -16,0 9 5 13 7 W 50 0,0
10.12.2019 02:00:00 -12,6 -14,7 8 4 14 8 W 50 0,0
10.12.2019 01:00:00 -11,2 -12,8 10 6 14 8 W 50 0,0
10.12.2019 00:00:00 -18,2 -20,4 0 0 11 6 N 50 0,0
09.12.2019 23:00:00 -13,9 -15,9 8 4 14 8 W 50 0,0
09.12.2019 22:00:00 -13,2 -15,2 8 4 14 8 W 50 0,0
09.12.2019 21:00:00 -17,5 -19,5 10 5 13 7 W 50 0,0
09.12.2019 20:00:00 -19,0 -21,3 8 5 15 8 W 6 0,2
09.12.2019 19:00:00 -22,9 -25,4 11 6 17 9 W 25 0,1
09.12.2019 18:00:00 -25,2 -27,9 8 4 14 8 W 50 0,0
09.12.2019 17:00:00 -24,5 -27,2 8 5 16 9 W 50 0,0
09.12.2019 16:00:00 -23,9 -26,6 8 4 16 9 W 50 0,0
09.12.2019 15:00:00 -23,9 -26,6 12 6 16 9 W 50 0,0
09.12.2019 14:00:00 -21,3 -23,7 9 5 15 8 W 50 0,0
09.12.2019 13:00:00 -20,7 -23,0 12 6 16 9 W 50 0,0
09.12.2019 12:00:00 -22,1 -24,6 13 7 15 8 W 50 0,0
09.12.2019 11:00:00 -24,5 -27,2 10 6 13 7 W 50 0,0
09.12.2019 10:00:00 -22,1 -24,5 9 5 12 6 W 50 0,0
09.12.2019 09:00:00 -21,5 -23,9 8 5 14 8 W 50 0,0
09.12.2019 08:00:00 -20,0 -22,4 11 6 14 8 W 50 0,0
09.12.2019 07:00:00 -18,9 -21,1 11 6 14 7 W 50 0,0
09.12.2019 06:00:00 -19,0 -21,3 10 5 13 7 W 50 0,0
09.12.2019 05:00:00 -18,4 -20,6 9 5 14 7 W 50 0,0
09.12.2019 04:00:00 -18,3 -20,5 10 5 13 7 W 50 0,0
09.12.2019 03:00:00 -18,4 -20,6 9 5 14 7 W 50 0,0
09.12.2019 02:00:00 -19,2 -21,2 9 5 13 7 W 50 0,0
09.12.2019 01:00:00 -19,4 -21,6 11 6 14 8 W 50 0,0
09.12.2019 00:00:00 -19,8 -21,7 10 5 14 8 W 50 0,0
08.12.2019 23:00:00 -20,0 -22,1 8 5 11 6 W 50 0,0
08.12.2019 22:00:00 -17,3 -18,8 9 5 13 7 W 50 0,0
08.12.2019 21:00:00 -17,7 -19,5 4 2 13 7 WSW 50 -
08.12.2019 20:00:00 -15,6 -17,1 6 3 11 6 WNW 50 -
08.12.2019 19:00:00 -14,4 -16,1 9 5 12 6 W 50 0,0
08.12.2019 18:00:00 -13,8 -15,5 7 4 10 6 W 50 0,0
08.12.2019 17:00:00 -10,3 -11,9 5 3 10 6 W 50 0,0
08.12.2019 16:00:00 -10,4 -12,0 6 3 9 5 W 50 0,0
08.12.2019 15:00:00 -9,9 -11,9 6 4 9 5 WNW 50 0,0
08.12.2019 14:00:00 -10,0 -12,0 6 3 9 5 W 50 0,0
08.12.2019 13:00:00 -7,4 -9,6 6 3 9 5 W 50 0,0
08.12.2019 12:00:00 -5,4 -7,7 5 3 9 5 W 50 0,0
08.12.2019 11:00:00 -5,8 -7,6 5 3 8 4 WNW 47 0,0
08.12.2019 10:00:00 -6,8 -8,5 6 3 9 5 W 35 0,0
08.12.2019 09:00:00 -7,1 -8,5 3 2 5 3 W 3,8 0,0
08.12.2019 08:00:00 -7,6 -9,2 4 2 5 3 W 47 0,0
08.12.2019 07:00:00 -7,5 -8,9 2 1 6 4 WNW 50 0,0
08.12.2019 06:00:00 -7,4 -8,8 5 3 7 4 W 50 0,0
08.12.2019 05:00:00 -7,7 -8,9 3 2 6 3 WNW 12 0,1
08.12.2019 04:00:00 -8,1 -9,4 2 1 5 3 WNW 3,4 0,0
08.12.2019 03:00:00 -8,5 -9,8 3 1 6 3 W 42 0,0
08.12.2019 02:00:00 -8,6 -9,9 2 1 5 3 W 47 0,0
08.12.2019 01:00:00 -8,5 -9,7 2 1 4 2 WNW 50 0,0
08.12.2019 00:00:00 -9,0 -10,1 3 2 4 2 W 16 0,0
07.12.2019 23:00:00 -9,5 -10,7 3 1 5 3 W 18 0,0
07.12.2019 22:00:00 -10,5 -11,8 2 1 5 3 W 50 0,0
07.12.2019 21:00:00 -10,6 -11,9 3 2 4 2 W 50 0,0
07.12.2019 20:00:00 -11,0 -12,3 0 0 1 1 N 50 0,0
07.12.2019 19:00:00 -11,1 -12,6 0 0 3 1 N 18 0,2
07.12.2019 18:00:00 -10,7 -12,0 0 0 1 1 N 40 0,0
07.12.2019 17:00:00 -10,8 -12,1 0 0 1 1 N 6 0,2
07.12.2019 16:00:00 -10,5 -11,8 0 0 3 2 N 3,7 0,1
07.12.2019 15:00:00 -10,6 -11,9 0 0 2 1 N 7 0,0
07.12.2019 14:00:00 -10,8 -12,1 0 0 3 1 N 11 0,1
07.12.2019 13:00:00 -10,0 -11,3 2 1 4 2 ESE 26 0,1
07.12.2019 12:00:00 -9,6 -10,8 3 1 6 4 ESE 5 0,1
07.12.2019 11:00:00 -9,1 -10,3 3 2 4 2 SE 50 -
07.12.2019 10:00:00 -8,9 -10,1 3 1 5 3 ESE 50 -
07.12.2019 09:00:00 -8,7 -9,8 3 2 4 2 ESE 14 0,1
07.12.2019 08:00:00 -8,5 -9,6 2 1 4 2 ESE 4,8 0,0
07.12.2019 07:00:00 -8,5 -9,6 2 1 4 2 ESE 4,5 0,0
07.12.2019 06:00:00 -8,6 -9,7 0 0 3 1 N 3,7 0,0
07.12.2019 05:00:00 -8,8 -9,9 0 0 3 2 N 47 0,2
07.12.2019 04:00:00 -8,6 -9,7 3 2 5 3 ESE 3,1 0,5
07.12.2019 03:00:00 -8,7 -9,8 0 0 5 3 N 3,1 0,1
07.12.2019 02:00:00 -8,8 -9,9 3 1 4 2 ESE 3,4 0,1
07.12.2019 01:00:00 -9,2 -10,4 0 0 5 3 N 2,4 0,0
07.12.2019 00:00:00 -9,4 -10,6 2 1 5 3 E 31 0,0
06.12.2019 23:00:00 -10,2 -11,5 0 0 4 2 N 50 0,0
06.12.2019 22:00:00 -10,4 -11,7 0 0 5 3 N - 0,0
06.12.2019 21:00:00 -11,0 -12,3 2 1 5 3 ESE 0,9 0,0
06.12.2019 20:00:00 -12,1 -13,5 3 2 4 2 E - 0,0
06.12.2019 19:00:00 -13,2 -14,6 0 0 2 1 N 0,4 0,0
06.12.2019 18:00:00 -14,4 -15,9 0 0 3 2 N 0,6 0,0
06.12.2019 17:00:00 -16,1 -17,6 2 1 4 2 SE 7 -
06.12.2019 16:00:00 -17,8 -19,7 0 0 7 4 N 50 0,0
06.12.2019 15:00:00 -16,2 -18,0 4 2 10 5 W 22 0,0
06.12.2019 14:00:00 -14,9 -16,6 7 4 11 6 W 36 0,0
06.12.2019 13:00:00 -14,0 -15,3 7 4 10 6 WSW 50 0,1
06.12.2019 12:00:00 -11,7 -12,9 7 4 16 9 W 50 0,0

tt = temperature
td = dewpoint
ff = wind speed
fx = gusts
dd = wind direction
vv = visibility
rr = precipitation

Next stations